Time;durP1;ratioP1;P1;durP2;ratioP2;P2;SDS_P1;SDS_P2;PMS_P1;PMS_P2;Temp;Humidity;BMP_temperature;BMP_pressure;BME280_temperature;BME280_humidity;BME280_pressure;Samples;Min_cycle;Max_cycle;Signal;HPM_P1;HPM_P2
2023/03/21 00:00:53;;;;;;;39.08;20.60;;;9.80;99.90;;;;;;5007936;28;20030;-76
2023/03/21 00:03:19;;;;;;;40.03;22.63;;;9.80;99.90;;;;;;5013762;28;20045;-76
2023/03/21 00:05:48;;;;;;;40.72;23.48;;;9.80;99.90;;;;;;5015485;28;20461;-76
2023/03/21 00:08:15;;;;;;;46.33;25.73;;;9.80;99.90;;;;;;5008477;28;20400;-76
2023/03/21 00:10:40;;;;;;;44.53;25.48;;;9.80;99.90;;;;;;5014354;28;20033;-76
2023/03/21 00:13:06;;;;;;;41.95;26.27;;;9.80;99.90;;;;;;5014245;28;20022;-76
2023/03/21 00:15:32;;;;;;;43.63;24.85;;;9.80;99.90;;;;;;4997727;28;20033;-75
2023/03/21 00:18:02;;;;;;;45.95;25.73;;;9.80;99.90;;;;;;4994572;28;20037;-75
2023/03/21 00:20:36;;;;;;;52.25;28.02;;;9.80;99.90;;;;;;5014532;28;20066;-76
2023/03/21 00:23:02;;;;;;;46.38;28.42;;;9.80;99.90;;;;;;5005578;28;20026;-76
2023/03/21 00:25:28;;;;;;;46.00;27.88;;;9.80;99.90;;;;;;5009165;28;20381;-75
2023/03/21 00:27:53;;;;;;;52.58;30.42;;;9.80;99.90;;;;;;5014551;28;20057;-76
2023/03/21 00:30:19;;;;;;;52.08;30.83;;;9.80;99.90;;;;;;5014313;28;20033;-75
2023/03/21 00:32:48;;;;;;;51.20;30.58;;;9.80;99.90;;;;;;5000766;28;20025;-76
2023/03/21 00:35:13;;;;;;;53.00;30.27;;;9.80;99.90;;;;;;5013613;28;20036;-75
2023/03/21 00:37:39;;;;;;;50.47;29.85;;;9.80;99.90;;;;;;5013173;28;20105;-76
2023/03/21 00:40:08;;;;;;;49.60;29.30;;;9.80;99.90;;;;;;5010599;28;20029;-75
2023/03/21 00:42:34;;;;;;;47.75;29.38;;;9.80;99.90;;;;;;5014362;28;20057;-76
2023/03/21 00:45:00;;;;;;;49.78;27.83;;;9.80;99.90;;;;;;5008684;28;20389;-76
2023/03/21 00:47:26;;;;;;;51.13;30.02;;;9.80;99.90;;;;;;5004945;28;20034;-76
2023/03/21 00:49:52;;;;;;;47.67;29.00;;;9.80;99.90;;;;;;4999654;28;20101;-76
2023/03/21 00:52:17;;;;;;;48.60;27.83;;;9.70;99.90;;;;;;5001021;28;20021;-76
2023/03/21 00:54:43;;;;;;;45.83;27.85;;;9.70;99.90;;;;;;5014517;28;20032;-76
2023/03/21 00:57:09;;;;;;;44.10;27.48;;;9.70;99.90;;;;;;5014403;28;20057;-76
2023/03/21 00:59:34;;;;;;;48.08;27.65;;;9.70;99.90;;;;;;5002805;28;20533;-76
2023/03/21 01:02:00;;;;;;;50.28;28.00;;;9.70;99.90;;;;;;4997792;28;20036;-76
2023/03/21 01:04:27;;;;;;;52.92;28.95;;;9.70;99.90;;;;;;5013306;28;20029;-76
2023/03/21 01:06:54;;;;;;;51.20;28.75;;;9.70;99.90;;;;;;5011806;28;20037;-75
2023/03/21 01:09:22;;;;;;;53.67;28.35;;;9.70;99.90;;;;;;5001112;28;20022;-76
2023/03/21 01:11:49;;;;;;;50.40;27.70;;;9.70;99.90;;;;;;5012104;28;20026;-77
2023/03/21 01:14:17;;;;;;;52.65;27.42;;;9.70;99.90;;;;;;5007105;28;20032;-76
2023/03/21 01:16:43;;;;;;;53.65;28.13;;;9.80;99.90;;;;;;4994497;28;20027;-76
2023/03/21 01:19:13;;;;;;;54.00;28.73;;;9.70;99.90;;;;;;5007568;28;20049;-76
2023/03/21 01:21:39;;;;;;;52.97;28.40;;;9.70;99.90;;;;;;4993824;28;20054;-76
2023/03/21 01:24:05;;;;;;;48.65;26.83;;;9.80;99.90;;;;;;5001265;28;20018;-76
2023/03/21 01:26:31;;;;;;;47.47;26.33;;;9.80;99.90;;;;;;5012406;28;20044;-76
2023/03/21 01:28:57;;;;;;;46.05;26.20;;;9.80;99.90;;;;;;4997873;28;20026;-76
2023/03/21 01:31:22;;;;;;;56.85;25.88;;;9.80;99.90;;;;;;5003253;28;20022;-76
2023/03/21 01:33:48;;;;;;;49.40;24.45;;;9.80;99.90;;;;;;5001987;28;20030;-77
2023/03/21 01:36:16;;;;;;;50.67;25.65;;;9.80;99.90;;;;;;5012105;28;20022;-77
2023/03/21 01:38:43;;;;;;;47.63;23.75;;;9.80;99.90;;;;;;5009287;28;20044;-76
2023/03/21 01:41:29;;;;;;;52.40;23.98;;;9.80;99.90;;;;;;5010050;28;20022;-76
2023/03/21 01:43:55;;;;;;;44.03;23.85;;;9.80;99.90;;;;;;4994489;28;20485;-76
2023/03/21 01:46:32;;;;;;;43.88;22.38;;;9.80;99.90;;;;;;4995595;28;20038;-76
2023/03/21 01:49:09;;;;;;;42.88;21.80;;;9.80;99.90;;;;;;4993371;28;20055;-76
2023/03/21 01:51:46;;;;;;;38.05;21.65;;;9.80;99.90;;;;;;5007132;28;20034;-76
2023/03/21 01:54:19;;;;;;;41.45;21.63;;;9.80;99.90;;;;;;5012228;28;20134;-76
2023/03/21 01:56:46;;;;;;;40.97;21.23;;;9.80;99.90;;;;;;5008199;28;20052;-76
2023/03/21 01:59:31;;;;;;;35.70;19.20;;;9.80;99.90;;;;;;5010193;28;20416;-77
2023/03/21 02:02:01;;;;;;;39.10;19.70;;;9.80;99.90;;;;;;5010922;28;20087;-76
2023/03/21 02:04:26;;;;;;;37.42;18.88;;;9.80;99.90;;;;;;4999618;28;20036;-76
2023/03/21 02:07:03;;;;;;;35.17;19.30;;;9.70;99.90;;;;;;5008895;28;20114;-76
2023/03/21 02:09:32;;;;;;;37.47;18.05;;;9.70;99.90;;;;;;5003250;28;20025;-76
2023/03/21 02:11:59;;;;;;;36.30;19.48;;;9.70;99.90;;;;;;5013012;28;20017;-76
2023/03/21 02:14:25;;;;;;;35.35;19.13;;;9.70;99.90;;;;;;5014017;28;20030;-76
2023/03/21 02:17:30;;;;;;;36.25;18.25;;;9.70;99.90;;;;;;4997931;28;20110;-77
2023/03/21 02:20:29;;;;;;;33.20;17.13;;;9.70;99.90;;;;;;4999481;28;20100;-76
2023/03/21 02:23:00;;;;;;;34.67;17.05;;;9.70;99.90;;;;;;5008786;28;20355;-77
2023/03/21 02:25:54;;;;;;;29.40;16.90;;;9.70;99.90;;;;;;5002887;28;20022;-76
2023/03/21 02:28:44;;;;;;;36.70;17.70;;;9.70;99.90;;;;;;4993032;28;20034;-76
2023/03/21 02:31:23;;;;;;;34.20;18.25;;;9.70;99.90;;;;;;5005829;28;20023;-77
2023/03/21 02:34:16;;;;;;;33.20;17.20;;;9.60;99.90;;;;;;5000268;28;20041;-77
2023/03/21 02:36:50;;;;;;;32.40;17.27;;;9.70;99.90;;;;;;4993840;28;20496;-77
2023/03/21 02:39:31;;;;;;;32.50;17.02;;;9.70;99.90;;;;;;4993651;28;20042;-76
2023/03/21 02:42:18;;;;;;;32.85;16.17;;;9.60;99.90;;;;;;5007102;28;20031;-77
2023/03/21 02:45:15;;;;;;;34.08;16.05;;;9.70;99.90;;;;;;4998852;28;20046;-77
2023/03/21 02:47:50;;;;;;;29.05;14.13;;;9.60;99.90;;;;;;4988014;28;20046;-76
2023/03/21 02:50:36;;;;;;;30.30;14.73;;;9.60;99.90;;;;;;5008081;28;20042;-77
2023/03/21 02:53:06;;;;;;;36.35;14.48;;;9.60;99.90;;;;;;5007058;28;20034;-77
2023/03/21 02:55:35;;;;;;;27.35;13.88;;;9.60;99.90;;;;;;4996207;28;20014;-77
2023/03/21 02:58:01;;;;;;;31.13;13.15;;;9.70;99.90;;;;;;5002134;28;20030;-77
2023/03/21 03:00:31;;;;;;;31.58;13.90;;;9.60;99.90;;;;;;5013206;28;20033;-77
2023/03/21 03:02:57;;;;;;;28.55;13.77;;;9.70;99.90;;;;;;5015478;28;20411;-77
2023/03/21 03:05:26;;;;;;;29.40;13.43;;;9.70;99.90;;;;;;5010277;28;20097;-77
2023/03/21 03:08:26;;;;;;;31.15;13.10;;;9.70;99.90;;;;;;5009591;28;20062;-77
2023/03/21 03:11:18;;;;;;;31.15;13.38;;;9.70;99.90;;;;;;5013867;28;20045;-76
2023/03/21 03:14:02;;;;;;;33.13;12.85;;;9.70;99.90;;;;;;5001510;28;20022;-77
2023/03/21 03:16:35;;;;;;;28.27;13.15;;;9.80;99.90;;;;;;5007372;28;20033;-76
2023/03/21 03:19:06;;;;;;;32.67;14.13;;;9.70;99.90;;;;;;5001637;28;20029;-77
2023/03/21 03:21:46;;;;;;;24.15;12.23;;;9.70;99.90;;;;;;5015860;28;20096;-76
2023/03/21 03:24:24;;;;;;;23.67;11.35;;;9.70;99.90;;;;;;4994326;28;20389;-76
2023/03/21 03:26:58;;;;;;;31.60;12.45;;;9.70;99.90;;;;;;5009116;28;20109;-76
2023/03/21 03:29:26;;;;;;;30.55;12.25;;;9.80;99.90;;;;;;5011404;28;20497;-76
2023/03/21 03:32:00;;;;;;;23.90;11.80;;;9.80;99.90;;;;;;5007077;28;20057;-77
2023/03/21 03:34:31;;;;;;;28.17;13.32;;;9.80;99.90;;;;;;5006103;28;20045;-76
2023/03/21 03:37:03;;;;;;;29.63;14.57;;;9.80;99.90;;;;;;5000244;28;20034;-76
2023/03/21 03:39:35;;;;;;;35.65;16.00;;;9.80;99.90;;;;;;5011927;28;20026;-77
2023/03/21 03:42:06;;;;;;;39.97;17.45;;;9.80;99.90;;;;;;5007539;28;20018;-77
2023/03/21 03:44:33;;;;;;;33.00;17.58;;;9.80;99.90;;;;;;5009337;28;20021;-77
2023/03/21 03:47:04;;;;;;;31.33;17.52;;;9.80;99.90;;;;;;4987146;28;20104;-76
2023/03/21 03:49:43;;;;;;;32.78;17.33;;;9.70;99.90;;;;;;5009153;28;20514;-76
2023/03/21 03:52:26;;;;;;;34.95;17.70;;;9.70;99.90;;;;;;5006153;28;20038;-76
2023/03/21 03:54:53;;;;;;;41.38;18.92;;;9.70;99.90;;;;;;5010370;28;20010;-76
2023/03/21 03:57:19;;;;;;;37.60;18.58;;;9.70;99.90;;;;;;5000872;28;20017;-77
2023/03/21 03:59:45;;;;;;;35.40;17.85;;;9.70;99.90;;;;;;4994874;28;20113;-77
2023/03/21 04:02:12;;;;;;;38.28;17.23;;;9.60;99.90;;;;;;5013155;28;20100;-77
2023/03/21 04:04:38;;;;;;;40.95;17.65;;;9.60;99.90;;;;;;5013571;28;20026;-78
2023/03/21 04:07:05;;;;;;;37.75;16.95;;;9.60;99.90;;;;;;5013775;28;20080;-77
2023/03/21 04:09:31;;;;;;;36.47;17.23;;;9.60;99.90;;;;;;5015025;28;20006;-77
2023/03/21 04:11:57;;;;;;;41.40;17.52;;;9.60;99.90;;;;;;5015219;28;20088;-77
2023/03/21 04:14:23;;;;;;;43.30;17.45;;;9.60;99.90;;;;;;5014397;28;20026;-77
2023/03/21 04:16:49;;;;;;;31.98;16.63;;;9.60;99.90;;;;;;5013659;28;20006;-78
2023/03/21 04:19:15;;;;;;;32.42;16.83;;;9.60;99.90;;;;;;5013747;28;20060;-77
2023/03/21 04:21:41;;;;;;;39.30;16.17;;;9.60;99.90;;;;;;5014161;28;20034;-77
2023/03/21 04:24:07;;;;;;;36.65;16.27;;;9.60;99.90;;;;;;5012633;28;20091;-77
2023/03/21 04:26:34;;;;;;;33.00;16.00;;;9.50;99.90;;;;;;5015132;28;20464;-77
2023/03/21 04:29:01;;;;;;;36.92;16.88;;;9.50;99.90;;;;;;5014771;28;20104;-77
2023/03/21 04:31:30;;;;;;;44.40;18.63;;;9.50;99.90;;;;;;5013567;28;20026;-77
2023/03/21 04:34:11;;;;;;;38.00;18.15;;;9.50;99.90;;;;;;5010281;28;20561;-77
2023/03/21 04:36:44;;;;;;;37.22;17.73;;;9.50;99.90;;;;;;4994860;28;20502;-77
2023/03/21 04:39:12;;;;;;;38.65;17.05;;;9.50;99.90;;;;;;5008382;28;20113;-77
2023/03/21 04:41:39;;;;;;;41.03;17.35;;;9.50;99.90;;;;;;5005838;28;20036;-77
2023/03/21 04:44:05;;;;;;;46.03;18.65;;;9.50;99.90;;;;;;5008293;28;20421;-77
2023/03/21 04:46:32;;;;;;;42.03;19.17;;;9.50;99.90;;;;;;5012208;28;20046;-77
2023/03/21 04:48:58;;;;;;;41.08;18.98;;;9.50;99.90;;;;;;5012498;28;20053;-76
2023/03/21 04:51:24;;;;;;;35.35;18.27;;;9.50;99.90;;;;;;4999874;28;20030;-77
2023/03/21 04:53:51;;;;;;;40.30;18.10;;;9.50;99.90;;;;;;4981544;28;20393;-77
2023/03/21 04:56:17;;;;;;;37.50;18.20;;;9.50;99.90;;;;;;5014030;28;20014;-77
2023/03/21 04:58:43;;;;;;;39.83;18.10;;;9.50;99.90;;;;;;5013560;28;20524;-77
2023/03/21 05:01:08;;;;;;;32.85;17.60;;;9.60;99.90;;;;;;5006960;28;20030;-77
2023/03/21 05:03:38;;;;;;;38.83;18.30;;;9.50;99.90;;;;;;5010766;28;20029;-76
2023/03/21 05:06:07;;;;;;;38.30;17.23;;;9.50;99.90;;;;;;5002400;28;20037;-77
2023/03/21 05:08:33;;;;;;;40.38;17.30;;;9.50;99.90;;;;;;5012730;28;20026;-76
2023/03/21 05:10:59;;;;;;;38.72;17.98;;;9.50;99.90;;;;;;5013749;28;20013;-76
2023/03/21 05:13:25;;;;;;;42.47;17.73;;;9.50;99.90;;;;;;5013994;28;20021;-75
2023/03/21 05:15:50;;;;;;;36.70;17.45;;;9.50;99.90;;;;;;5009729;28;20101;-76
2023/03/21 05:18:23;;;;;;;41.47;17.77;;;9.50;99.90;;;;;;4982542;28;20030;-76
2023/03/21 05:20:53;;;;;;;32.35;16.90;;;9.50;99.90;;;;;;4994582;28;20519;-76
2023/03/21 05:23:22;;;;;;;38.08;17.27;;;9.60;99.90;;;;;;5003090;28;20045;-76
2023/03/21 05:25:50;;;;;;;35.33;17.85;;;9.50;99.90;;;;;;5012296;28;20448;-76
2023/03/21 05:28:18;;;;;;;44.22;18.00;;;9.50;99.90;;;;;;4999946;28;20022;-76
2023/03/21 05:30:45;;;;;;;43.40;18.80;;;9.50;99.90;;;;;;5009489;28;20029;-76
2023/03/21 05:33:11;;;;;;;36.58;18.90;;;9.50;99.90;;;;;;5006267;28;20113;-76
2023/03/21 05:35:37;;;;;;;40.30;17.95;;;9.50;99.90;;;;;;5009209;28;20164;-76
2023/03/21 05:38:03;;;;;;;38.67;18.38;;;9.50;99.90;;;;;;5000337;28;20041;-75
2023/03/21 05:40:29;;;;;;;40.03;19.80;;;9.50;99.90;;;;;;5007361;28;20018;-76
2023/03/21 05:42:54;;;;;;;44.28;18.55;;;9.50;99.90;;;;;;4994567;28;20019;-76
2023/03/21 05:45:20;;;;;;;47.70;18.98;;;9.50;99.90;;;;;;5008240;28;20036;-76
2023/03/21 05:47:45;;;;;;;42.33;18.77;;;9.50;99.90;;;;;;4995919;28;20390;-76
2023/03/21 05:50:12;;;;;;;40.42;19.20;;;9.50;99.90;;;;;;4994291;28;20117;-76
2023/03/21 05:52:38;;;;;;;45.33;19.27;;;9.50;99.90;;;;;;4998535;28;20441;-76
2023/03/21 05:55:04;;;;;;;39.40;18.40;;;9.50;99.90;;;;;;5005514;28;20076;-76
2023/03/21 05:57:33;;;;;;;35.25;19.27;;;9.50;99.90;;;;;;5007344;28;20050;-76
2023/03/21 06:00:00;;;;;;;41.95;19.38;;;9.50;99.90;;;;;;4999981;28;20031;-76
2023/03/21 06:02:25;;;;;;;37.13;19.08;;;9.50;99.90;;;;;;5004129;28;20042;-76
2023/03/21 06:04:51;;;;;;;39.03;20.05;;;9.50;99.90;;;;;;5013037;28;20041;-76
2023/03/21 06:07:16;;;;;;;40.95;18.38;;;9.50;99.90;;;;;;4960118;28;20488;-76
2023/03/21 06:09:42;;;;;;;35.60;17.90;;;9.50;99.90;;;;;;4992821;28;20037;-76
2023/03/21 06:12:08;;;;;;;38.80;18.40;;;9.50;99.90;;;;;;5007009;28;20109;-77
2023/03/21 06:14:33;;;;;;;37.40;18.05;;;9.50;99.90;;;;;;5000656;28;20069;-77
2023/03/21 06:16:59;;;;;;;38.92;17.15;;;9.50;99.90;;;;;;5009238;28;20030;-77
2023/03/21 06:19:25;;;;;;;39.92;17.52;;;9.50;99.90;;;;;;5012728;28;20025;-76
2023/03/21 06:21:51;;;;;;;40.30;16.38;;;9.50;99.90;;;;;;4999719;28;20081;-76
2023/03/21 06:24:16;;;;;;;36.60;15.23;;;9.50;99.90;;;;;;4993689;28;20110;-76
2023/03/21 06:26:42;;;;;;;28.30;14.02;;;9.50;99.90;;;;;;5006111;28;20037;-77
2023/03/21 06:29:08;;;;;;;33.95;14.02;;;9.50;99.90;;;;;;4999583;28;20058;-76
2023/03/21 06:31:34;;;;;;;29.13;13.48;;;9.50;99.90;;;;;;5007195;28;20044;-77
2023/03/21 06:33:59;;;;;;;28.95;13.05;;;9.50;99.90;;;;;;5001814;28;20038;-77
2023/03/21 06:36:25;;;;;;;27.90;13.13;;;9.60;99.90;;;;;;5009756;28;20026;-76
2023/03/21 06:38:51;;;;;;;28.63;12.60;;;9.60;99.90;;;;;;5004797;28;20057;-76
2023/03/21 06:41:17;;;;;;;27.77;12.35;;;9.60;99.90;;;;;;4986013;28;20010;-76
2023/03/21 06:43:43;;;;;;;26.48;12.18;;;9.60;99.90;;;;;;5010781;28;20029;-77
2023/03/21 06:46:09;;;;;;;30.08;12.70;;;9.60;99.90;;;;;;5013829;28;20489;-77
2023/03/21 06:48:36;;;;;;;29.85;12.90;;;9.60;99.90;;;;;;4995595;28;20073;-77
2023/03/21 06:51:03;;;;;;;28.80;12.85;;;9.60;99.90;;;;;;5002395;28;20132;-77
2023/03/21 06:53:31;;;;;;;27.67;12.50;;;9.60;99.90;;;;;;4991427;28;22713;-76
2023/03/21 06:55:57;;;;;;;29.83;12.90;;;9.60;99.90;;;;;;5011002;28;20022;-76
2023/03/21 06:58:23;;;;;;;26.70;12.25;;;9.60;99.90;;;;;;5012953;28;20026;-77
2023/03/21 07:00:48;;;;;;;28.95;12.50;;;9.60;99.90;;;;;;5006451;28;20022;-76
2023/03/21 07:03:15;;;;;;;24.75;12.48;;;9.60;99.90;;;;;;5016006;28;20018;-76
2023/03/21 07:05:41;;;;;;;24.58;11.65;;;9.60;99.90;;;;;;4999854;28;20030;-77
2023/03/21 07:08:10;;;;;;;32.58;13.02;;;9.60;99.90;;;;;;4996792;28;20084;-76
2023/03/21 07:10:41;;;;;;;26.85;13.30;;;9.60;99.90;;;;;;5009306;28;20389;-76
2023/03/21 07:13:06;;;;;;;35.30;14.73;;;9.60;99.90;;;;;;5004133;28;20473;-77
2023/03/21 07:15:33;;;;;;;32.58;14.80;;;9.60;99.90;;;;;;5003204;28;20029;-76
2023/03/21 07:17:59;;;;;;;34.90;15.43;;;9.60;99.90;;;;;;5010835;28;20389;-77
2023/03/21 07:20:25;;;;;;;34.85;14.23;;;9.60;99.90;;;;;;4999960;28;20037;-77
2023/03/21 07:22:51;;;;;;;39.85;15.20;;;9.60;99.90;;;;;;5013258;28;20391;-76
2023/03/21 07:25:18;;;;;;;29.13;14.68;;;9.60;99.90;;;;;;4996817;28;20030;-76
2023/03/21 07:27:45;;;;;;;31.23;13.75;;;9.60;99.90;;;;;;5002841;28;20082;-76
2023/03/21 07:30:11;;;;;;;30.38;13.07;;;9.60;99.90;;;;;;5006027;28;20019;-77
2023/03/21 07:32:37;;;;;;;31.33;13.75;;;9.60;99.90;;;;;;5001231;28;20073;-77
2023/03/21 07:35:04;;;;;;;34.40;13.38;;;9.60;99.90;;;;;;5007611;28;20358;-78
2023/03/21 07:37:30;;;;;;;31.85;13.77;;;9.60;99.90;;;;;;4996865;28;20671;-77
2023/03/21 07:39:56;;;;;;;32.53;13.98;;;9.60;99.90;;;;;;5009459;28;20022;-77
2023/03/21 07:42:21;;;;;;;29.10;13.57;;;9.70;99.90;;;;;;4998135;28;20025;-78
2023/03/21 07:44:47;;;;;;;28.05;13.55;;;9.70;99.90;;;;;;5002129;28;20109;-77
2023/03/21 07:47:12;;;;;;;32.05;13.35;;;9.70;99.90;;;;;;4978821;28;20030;-77
2023/03/21 07:49:38;;;;;;;31.23;13.20;;;9.70;99.90;;;;;;5000285;28;20054;-77
2023/03/21 07:52:05;;;;;;;30.58;13.45;;;9.70;99.90;;;;;;5001709;28;20101;-77
2023/03/21 07:54:31;;;;;;;29.80;13.40;;;9.70;99.90;;;;;;4996268;28;20014;-77
2023/03/21 07:56:56;;;;;;;27.77;13.00;;;9.70;99.90;;;;;;4996276;28;20108;-77
2023/03/21 07:59:22;;;;;;;31.13;13.15;;;9.70;99.90;;;;;;5005480;28;20034;-77
2023/03/21 08:01:48;;;;;;;31.85;13.20;;;9.80;99.90;;;;;;5008098;28;20040;-76
2023/03/21 08:04:14;;;;;;;32.97;13.50;;;9.80;99.90;;;;;;5016991;28;20018;-77
2023/03/21 08:06:40;;;;;;;30.70;12.90;;;9.90;99.90;;;;;;5006715;28;20053;-77
2023/03/21 08:09:06;;;;;;;31.20;12.20;;;9.90;99.90;;;;;;5010548;28;20026;-77
2023/03/21 08:11:32;;;;;;;25.50;11.90;;;9.90;99.90;;;;;;5007200;28;20054;-76
2023/03/21 08:13:59;;;;;;;22.48;11.82;;;9.90;99.90;;;;;;5002226;28;20026;-76
2023/03/21 08:16:25;;;;;;;25.55;11.20;;;9.90;99.90;;;;;;5010026;28;20025;-76
2023/03/21 08:18:51;;;;;;;25.02;11.25;;;10.00;99.90;;;;;;5002034;28;20469;-76
2023/03/21 08:21:16;;;;;;;29.30;11.98;;;10.00;99.90;;;;;;5010618;28;20025;-77
2023/03/21 08:23:42;;;;;;;28.27;10.95;;;10.00;99.90;;;;;;4999816;28;20039;-77
2023/03/21 08:26:08;;;;;;;24.48;10.40;;;10.10;99.90;;;;;;5005611;28;20037;-77
2023/03/21 08:28:35;;;;;;;21.13;10.55;;;10.10;99.90;;;;;;5013414;28;20044;-77
2023/03/21 08:31:06;;;;;;;25.33;10.32;;;10.10;99.90;;;;;;5007759;28;20231;-78
2023/03/21 08:33:32;;;;;;;23.45;9.85;;;10.20;99.90;;;;;;5007373;28;20010;-77
2023/03/21 08:36:00;;;;;;;20.35;9.70;;;10.20;99.90;;;;;;4997617;28;20026;-76
2023/03/21 08:38:31;;;;;;;23.20;9.63;;;10.30;99.90;;;;;;4998744;28;20033;-75
2023/03/21 08:40:59;;;;;;;21.25;9.90;;;10.40;99.90;;;;;;5011804;28;20029;-76
2023/03/21 08:43:25;;;;;;;22.75;9.63;;;10.40;99.90;;;;;;4997638;28;20018;-76
2023/03/21 08:45:50;;;;;;;19.23;8.93;;;10.40;99.90;;;;;;5002625;28;20075;-76
2023/03/21 08:48:16;;;;;;;23.70;9.57;;;10.50;99.90;;;;;;4999362;28;20022;-75
2023/03/21 08:50:42;;;;;;;18.63;8.50;;;10.60;99.90;;;;;;5013118;28;20053;-75
2023/03/21 08:53:08;;;;;;;18.92;9.10;;;10.60;99.90;;;;;;5013497;28;20017;-75
2023/03/21 08:55:34;;;;;;;21.88;9.05;;;10.60;99.90;;;;;;5013399;28;20040;-75
2023/03/21 08:58:01;;;;;;;20.92;9.10;;;10.70;99.90;;;;;;5014837;28;20022;-75
2023/03/21 09:00:27;;;;;;;22.38;9.38;;;10.70;99.90;;;;;;4982992;28;20022;-76
2023/03/21 09:02:54;;;;;;;20.80;10.32;;;10.80;99.90;;;;;;5007230;28;20083;-76
2023/03/21 09:05:21;;;;;;;21.73;9.32;;;10.80;99.90;;;;;;5005609;28;20018;-76
2023/03/21 09:07:48;;;;;;;20.88;10.30;;;10.80;99.90;;;;;;5009913;28;20029;-76
2023/03/21 09:10:17;;;;;;;22.38;10.43;;;10.80;99.90;;;;;;5006844;28;20080;-75
2023/03/21 09:12:43;;;;;;;20.40;9.93;;;10.90;99.90;;;;;;5006492;28;20049;-75
2023/03/21 09:15:11;;;;;;;24.80;10.68;;;11.00;99.90;;;;;;5007868;28;20369;-75
2023/03/21 09:17:41;;;;;;;25.30;10.30;;;11.00;99.90;;;;;;4999870;28;20448;-75
2023/03/21 09:20:17;;;;;;;24.60;11.48;;;11.10;99.90;;;;;;5013967;28;20094;-75
2023/03/21 09:22:44;;;;;;;29.02;11.43;;;11.20;99.90;;;;;;5012003;28;20496;-75
2023/03/21 09:25:10;;;;;;;20.50;11.43;;;11.20;99.90;;;;;;5011901;28;20025;-75
2023/03/21 09:27:36;;;;;;;27.42;11.25;;;11.30;99.90;;;;;;4992344;28;20033;-75
2023/03/21 09:30:04;;;;;;;29.05;11.85;;;11.30;99.90;;;;;;5004727;28;20105;-75
2023/03/21 09:32:30;;;;;;;20.83;11.98;;;11.30;99.90;;;;;;4985479;28;20122;-76
2023/03/21 09:34:56;;;;;;;26.85;11.70;;;11.30;99.90;;;;;;5008258;28;20053;-76
2023/03/21 09:37:22;;;;;;;31.05;12.60;;;11.40;99.90;;;;;;5011738;28;20456;-76
2023/03/21 09:39:49;;;;;;;28.08;12.18;;;11.40;99.90;;;;;;4998727;28;20030;-76
2023/03/21 09:42:45;;;;;;;26.42;12.35;;;11.50;99.90;;;;;;5005240;28;20030;-76
2023/03/21 09:45:11;;;;;;;30.88;12.10;;;11.50;99.90;;;;;;5013468;28;20014;-76
2023/03/21 09:47:51;;;;;;;27.90;12.85;;;11.50;99.90;;;;;;5007882;28;20420;-76
2023/03/21 09:50:26;;;;;;;32.95;13.55;;;11.50;99.90;;;;;;5010791;28;20073;-76
2023/03/21 09:53:23;;;;;;;27.52;11.95;;;11.60;99.90;;;;;;4999309;28;20156;-76
2023/03/21 09:55:50;;;;;;;21.73;11.50;;;11.60;99.90;;;;;;5006316;28;20022;-76
2023/03/21 09:58:24;;;;;;;35.33;12.85;;;11.70;99.90;;;;;;5005871;28;20093;-76
2023/03/21 10:00:55;;;;;;;28.92;11.68;;;11.70;99.90;;;;;;4994782;28;20030;-76
2023/03/21 10:03:23;;;;;;;24.98;11.30;;;11.80;99.90;;;;;;5004668;28;20084;-76
2023/03/21 10:05:51;;;;;;;20.63;10.88;;;11.80;99.90;;;;;;5010118;28;20018;-76
2023/03/21 10:08:33;;;;;;;26.52;10.35;;;11.90;99.90;;;;;;5014344;28;20088;-77
2023/03/21 10:11:22;;;;;;;26.80;10.90;;;12.00;99.90;;;;;;5001625;28;20018;-75
2023/03/21 10:13:54;;;;;;;21.85;10.18;;;11.90;99.90;;;;;;4975262;28;20038;-76
2023/03/21 10:16:42;;;;;;;23.05;10.52;;;12.00;99.90;;;;;;4999043;28;20109;-74
2023/03/21 10:19:12;;;;;;;25.40;10.48;;;12.00;99.90;;;;;;4979649;28;20232;-75
2023/03/21 10:21:45;;;;;;;21.38;10.15;;;12.00;99.90;;;;;;4999699;28;20037;-75
2023/03/21 10:24:21;;;;;;;21.83;10.35;;;12.00;99.90;;;;;;5000596;28;20667;-76
2023/03/21 10:26:49;;;;;;;20.38;10.27;;;12.00;99.90;;;;;;5006509;28;20046;-75
2023/03/21 10:29:17;;;;;;;22.85;10.60;;;12.00;99.90;;;;;;5007014;28;20048;-76
2023/03/21 10:31:45;;;;;;;19.10;10.15;;;12.00;99.90;;;;;;5016628;28;20022;-76
2023/03/21 10:34:45;;;;;;;21.98;10.05;;;12.00;99.90;;;;;;5009185;28;20033;-76
2023/03/21 10:37:13;;;;;;;27.50;9.90;;;12.00;99.90;;;;;;4986781;28;20041;-75
2023/03/21 10:39:40;;;;;;;21.45;9.90;;;12.00;99.90;;;;;;5010489;28;20029;-76
2023/03/21 10:42:13;;;;;;;25.67;10.30;;;12.00;99.90;;;;;;4989254;28;20109;-76
2023/03/21 10:44:44;;;;;;;24.13;10.68;;;11.90;99.90;;;;;;4997002;28;20422;-76
2023/03/21 10:47:10;;;;;;;20.63;12.35;;;11.90;99.90;;;;;;5006929;28;20045;-76
2023/03/21 10:49:37;;;;;;;22.73;12.13;;;11.90;99.90;;;;;;4996910;28;20058;-75
2023/03/21 10:52:09;;;;;;;23.73;12.80;;;11.80;99.90;;;;;;5000647;28;20026;-76
2023/03/21 10:54:34;;;;;;;28.58;13.23;;;11.80;99.90;;;;;;5008230;28;20022;-76
2023/03/21 10:57:16;;;;;;;27.52;13.40;;;11.80;99.90;;;;;;4999543;28;20560;-75
2023/03/21 10:59:57;;;;;;;32.35;13.15;;;11.90;99.90;;;;;;4996948;28;20036;-75
2023/03/21 11:02:35;;;;;;;29.83;14.02;;;12.00;99.90;;;;;;5001794;28;20053;-75
2023/03/21 11:05:07;;;;;;;21.83;12.52;;;12.00;99.90;;;;;;5016296;28;20080;-75
2023/03/21 11:07:35;;;;;;;25.60;12.65;;;12.10;99.90;;;;;;5002184;28;20033;-76
2023/03/21 11:10:12;;;;;;;24.98;12.52;;;12.10;99.90;;;;;;5005962;28;20670;-76
2023/03/21 11:12:40;;;;;;;30.80;12.57;;;12.20;99.90;;;;;;5002531;28;20030;-76
2023/03/21 11:15:50;;;;;;;23.17;13.07;;;12.20;99.90;;;;;;5003401;28;20030;-76
2023/03/21 11:18:22;;;;;;;29.17;13.38;;;12.20;99.90;;;;;;4996680;28;20038;-76
2023/03/21 11:21:02;;;;;;;25.05;13.75;;;12.20;99.90;;;;;;5007488;28;20041;-76
2023/03/21 11:23:31;;;;;;;23.13;12.48;;;12.20;99.90;;;;;;5005868;28;20038;-76
2023/03/21 11:25:59;;;;;;;23.58;11.93;;;12.20;99.90;;;;;;5012240;28;20106;-76
2023/03/21 11:28:34;;;;;;;25.20;12.02;;;12.20;99.90;;;;;;5006131;28;20066;-76
2023/03/21 11:31:02;;;;;;;27.67;12.13;;;12.20;99.90;;;;;;5008165;28;20045;-76
2023/03/21 11:33:35;;;;;;;27.70;12.05;;;12.20;99.90;;;;;;4997034;28;20023;-76
2023/03/21 11:36:23;;;;;;;27.95;13.20;;;12.10;99.90;;;;;;5010270;28;20113;-76
2023/03/21 11:38:56;;;;;;;19.48;12.10;;;12.10;99.90;;;;;;5005971;28;20149;-76
2023/03/21 11:41:29;;;;;;;23.90;11.45;;;12.10;99.90;;;;;;5003138;28;20034;-76
2023/03/21 11:43:55;;;;;;;17.05;8.35;;;12.10;99.90;;;;;;5003007;28;20026;-76
2023/03/21 11:46:27;;;;;;;16.73;8.38;;;12.20;99.90;;;;;;5015699;28;20104;-75
2023/03/21 11:48:54;;;;;;;15.57;7.03;;;12.20;99.90;;;;;;5005490;28;20077;-76
2023/03/21 11:51:39;;;;;;;15.95;7.28;;;12.30;99.90;;;;;;5011564;28;20052;-75
2023/03/21 11:54:28;;;;;;;15.55;7.70;;;12.40;99.90;;;;;;5013532;28;20053;-75
2023/03/21 11:57:28;;;;;;;18.25;8.10;;;12.50;99.90;;;;;;4996687;28;20030;-75
2023/03/21 12:00:13;;;;;;;15.27;7.93;;;12.60;99.90;;;;;;5005839;28;20045;-75
2023/03/21 12:03:06;;;;;;;17.97;8.10;;;12.80;99.90;;;;;;5014521;28;20038;-75
2023/03/21 12:05:42;;;;;;;14.85;7.47;;;12.90;99.90;;;;;;5015234;28;20022;-75
2023/03/21 12:08:33;;;;;;;16.95;7.75;;;12.90;99.90;;;;;;5000273;28;20030;-75
2023/03/21 12:11:18;;;;;;;12.23;7.30;;;12.90;99.90;;;;;;5004126;28;20183;-75
2023/03/21 12:14:10;;;;;;;12.85;7.80;;;12.90;99.90;;;;;;4998223;28;20029;-76
2023/03/21 12:17:02;;;;;;;19.23;8.88;;;12.80;99.90;;;;;;5007021;28;20117;-76
2023/03/21 12:19:47;;;;;;;14.95;7.18;;;12.70;99.90;;;;;;5008100;28;20030;-76
2023/03/21 12:22:22;;;;;;;14.55;7.60;;;12.70;99.90;;;;;;5006493;28;20045;-76
2023/03/21 12:24:56;;;;;;;18.80;8.38;;;12.70;99.90;;;;;;5007646;28;20026;-76
2023/03/21 12:27:40;;;;;;;17.58;8.63;;;12.70;99.90;;;;;;4995475;28;20035;-76
2023/03/21 12:30:30;;;;;;;14.88;7.65;;;12.70;99.90;;;;;;4995668;28;20359;-76
2023/03/21 12:33:13;;;;;;;17.58;7.15;;;12.70;99.90;;;;;;5010367;28;20042;-76
2023/03/21 12:35:49;;;;;;;14.85;7.20;;;12.70;99.90;;;;;;5007337;28;20043;-76
2023/03/21 12:38:17;;;;;;;14.27;7.60;;;12.60;99.90;;;;;;4998701;28;20030;-76
2023/03/21 12:41:04;;;;;;;14.77;7.57;;;12.70;99.90;;;;;;5014310;28;20066;-76
2023/03/21 12:43:40;;;;;;;12.48;7.10;;;12.70;99.90;;;;;;5011959;28;20022;-75
2023/03/21 12:46:41;;;;;;;14.60;7.43;;;12.80;99.90;;;;;;5004420;28;20065;-76
2023/03/21 12:49:27;;;;;;;18.35;8.30;;;12.80;99.90;;;;;;5005553;28;20073;-76
2023/03/21 12:52:02;;;;;;;14.35;8.15;;;12.90;99.90;;;;;;5001054;28;20025;-76
2023/03/21 12:54:35;;;;;;;12.00;6.93;;;13.00;99.90;;;;;;5003550;28;20018;-76